Time;durP1;ratioP1;P1;durP2;ratioP2;P2;SDS_P1;SDS_P2;PMS_P1;PMS_P2;Temp;Humidity;BMP_temperature;BMP_pressure;BME280_temperature;BME280_humidity;BME280_pressure;Samples;Min_cycle;Max_cycle;Signal;HPM_P1;HPM_P2
2023/11/24 00:04:02;;;;;;;5.20;0.50;;;;;;;4.72;96.12;97654.45;216444;1269;140760;-79
2023/11/24 00:09:07;;;;;;;3.70;0.90;;;;;;;4.69;95.94;97655.16;216303;1267;139313;-80
2023/11/24 00:14:15;;;;;;;1.70;0.40;;;;;;;4.67;95.93;97664.91;216558;1266;139086;-80
2023/11/24 00:19:20;;;;;;;2.30;1.70;;;;;;;4.66;95.99;97664.77;218230;1267;139417;-80
2023/11/24 00:24:24;;;;;;;2.90;1.10;;;;;;;4.64;96.07;97654.25;216289;1265;139072;-78
2023/11/24 00:29:31;;;;;;;4.10;1.00;;;;;;;4.65;96.08;97669.58;217172;1265;139900;-77
2023/11/24 00:34:38;;;;;;;1.10;0.80;;;;;;;4.67;95.91;97647.37;216671;1266;139280;-77
2023/11/24 00:39:44;;;;;;;2.50;1.20;;;;;;;4.70;96.34;97628.41;216675;1265;140427;-76
2023/11/24 00:44:49;;;;;;;2.50;0.70;;;;;;;4.71;96.10;97628.21;217605;1265;139350;-80
2023/11/24 00:49:54;;;;;;;5.30;0.70;;;;;;;4.73;96.25;97656.10;218342;1265;139622;-78
2023/11/24 00:54:59;;;;;;;3.70;0.60;;;;;;;4.78;96.16;97655.59;217119;1265;140591;-76
2023/11/24 01:00:08;;;;;;;2.80;1.90;;;;;;;4.83;96.13;97647.30;217529;1264;140256;-75
2023/11/24 01:05:12;;;;;;;3.40;1.30;;;;;;;4.86;96.26;97637.61;217168;1268;139351;-77
2023/11/24 01:10:16;;;;;;;8.60;2.10;;;;;;;4.91;96.19;97638.11;217655;1265;139086;-77
2023/11/24 01:15:21;;;;;;;1.80;1.20;;;;;;;4.95;96.20;97662.09;218625;1265;139999;-75
2023/11/24 01:20:26;;;;;;;4.70;1.70;;;;;;;5.00;95.75;97672.49;218081;1265;141035;-76
2023/11/24 01:25:33;;;;;;;3.40;1.40;;;;;;;5.07;95.58;97659.30;218944;1265;139420;-75
2023/11/24 01:30:39;;;;;;;4.10;1.60;;;;;;;5.10;95.70;97647.88;219410;1265;140666;-75
2023/11/24 01:35:44;;;;;;;1.90;0.90;;;;;;;5.15;95.37;97645.13;219120;1265;142357;-75
2023/11/24 01:40:48;;;;;;;2.40;0.80;;;;;;;5.19;95.35;97660.48;218601;1265;139558;-73
2023/11/24 01:45:53;;;;;;;2.10;0.50;;;;;;;4.96;92.56;97692.30;219431;1265;139012;-75
2023/11/24 01:50:58;;;;;;;1.80;1.40;;;;;;;4.15;89.78;97701.77;216769;1265;140817;-72
2023/11/24 01:56:03;;;;;;;1.80;0.50;;;;;;;3.49;90.12;97675.05;217880;1265;140186;-74
2023/11/24 02:01:09;;;;;;;4.20;1.40;;;;;;;3.13;91.61;97667.94;218088;1265;140297;-75
2023/11/24 02:06:13;;;;;;;4.80;1.20;;;;;;;3.06;92.41;97662.97;216388;1265;139759;-73
2023/11/24 02:11:17;;;;;;;7.10;2.00;;;;;;;3.01;92.54;97647.21;217090;1266;139915;-74
2023/11/24 02:16:22;;;;;;;2.20;1.60;;;;;;;2.95;92.54;97647.38;216918;1267;141102;-74
2023/11/24 02:21:28;;;;;;;3.00;1.90;;;;;;;2.88;92.75;97647.45;218112;1264;139290;-76
2023/11/24 02:26:32;;;;;;;4.50;1.20;;;;;;;2.87;93.11;97654.84;217707;1265;139105;-72
2023/11/24 02:31:38;;;;;;;2.10;1.50;;;;;;;2.85;93.13;97655.96;216938;1265;139371;-76
2023/11/24 02:36:44;;;;;;;7.00;1.50;;;;;;;2.78;93.00;97641.58;216618;1266;139459;-75
2023/11/24 02:41:48;;;;;;;8.80;1.80;;;;;;;2.76;93.45;97642.64;217427;1265;141867;-78
2023/11/24 02:46:52;;;;;;;7.20;2.80;;;;;;;2.78;93.57;97643.20;217503;1265;140466;-76
2023/11/24 02:51:58;;;;;;;1.90;1.00;;;;;;;2.80;93.62;97640.30;217035;1265;141000;-75
2023/11/24 02:57:04;;;;;;;4.20;1.00;;;;;;;2.76;93.39;97641.60;216818;1265;139456;-70
2023/11/24 03:02:09;;;;;;;1.90;1.80;;;;;;;2.76;93.66;97648.08;216590;1268;139442;-77
2023/11/24 03:07:14;;;;;;;1.20;1.10;;;;;;;2.78;93.93;97654.51;217702;1265;140344;-75
2023/11/24 03:12:21;;;;;;;1.00;0.60;;;;;;;2.76;93.68;97652.44;217894;1265;139804;-73
2023/11/24 03:17:24;;;;;;;3.70;0.90;;;;;;;2.72;93.70;97655.42;218866;1265;139747;-74
2023/11/24 03:22:29;;;;;;;4.00;1.10;;;;;;;2.70;93.80;97654.33;218186;1264;140230;-74
2023/11/24 03:27:33;;;;;;;4.50;0.90;;;;;;;2.71;93.99;97656.46;218614;1265;139365;-76
2023/11/24 03:32:37;;;;;;;2.10;0.90;;;;;;;2.72;93.86;97648.80;219701;1265;141250;-80
2023/11/24 03:37:42;;;;;;;1.40;0.40;;;;;;;2.72;93.95;97649.43;218228;1265;139415;-76
2023/11/24 03:42:47;;;;;;;1.20;0.60;;;;;;;2.70;93.70;97654.54;218256;1265;140226;-75
2023/11/24 03:47:52;;;;;;;7.80;1.20;;;;;;;2.69;93.80;97664.84;216552;1266;140670;-73
2023/11/24 03:52:57;;;;;;;4.40;1.50;;;;;;;2.66;93.74;97664.46;216883;1265;141166;-75
2023/11/24 03:58:02;;;;;;;2.70;1.30;;;;;;;2.61;93.80;97670.63;218076;1265;140059;-76
2023/11/24 04:03:06;;;;;;;3.00;1.40;;;;;;;2.57;93.78;97663.45;217241;1266;139497;-75
2023/11/24 04:08:11;;;;;;;9.30;1.70;;;;;;;2.56;93.54;97660.16;216788;1265;140034;-74
2023/11/24 04:13:16;;;;;;;6.30;1.00;;;;;;;2.55;93.58;97647.30;217181;1265;140273;-75
2023/11/24 04:18:20;;;;;;;6.30;1.50;;;;;;;2.54;93.43;97644.61;216514;1265;140480;-74
2023/11/24 04:23:25;;;;;;;6.60;1.90;;;;;;;2.53;93.17;97649.25;217632;1265;139782;-73
2023/11/24 04:28:29;;;;;;;5.50;1.80;;;;;;;2.54;93.29;97641.39;216806;1264;140225;-71
2023/11/24 04:33:37;;;;;;;4.90;1.90;;;;;;;2.57;93.39;97633.36;216575;1265;139182;-74
2023/11/24 04:38:42;;;;;;;3.30;1.00;;;;;;;2.62;93.36;97623.41;216993;1264;140216;-71
2023/11/24 04:43:47;;;;;;;8.50;1.40;;;;;;;2.65;93.21;97625.20;216437;1268;139981;-68
2023/11/24 04:48:51;;;;;;;5.10;1.20;;;;;;;2.67;93.09;97624.19;216841;1265;139816;-69
2023/11/24 04:53:57;;;;;;;6.70;2.60;;;;;;;2.67;93.06;97628.61;216486;1266;139771;-70
2023/11/24 04:59:02;;;;;;;8.70;1.80;;;;;;;2.70;93.01;97632.88;217146;1264;139532;-68
2023/11/24 05:04:06;;;;;;;4.00;0.80;;;;;;;2.72;92.83;97632.07;217321;1264;139504;-69
2023/11/24 05:09:11;;;;;;;8.50;1.60;;;;;;;2.76;92.63;97630.80;218948;1264;139359;-72
2023/11/24 05:14:15;;;;;;;1.90;1.00;;;;;;;2.78;92.22;97638.20;216498;1265;139171;-70
2023/11/24 05:19:20;;;;;;;1.10;0.60;;;;;;;2.80;92.11;97640.55;219331;1265;140266;-80
2023/11/24 05:24:24;;;;;;;2.70;1.80;;;;;;;2.79;91.87;97646.01;217561;1265;139126;-76
2023/11/24 05:29:30;;;;;;;9.10;1.50;;;;;;;2.75;91.48;97655.95;219644;1264;139586;-74
2023/11/24 05:34:35;;;;;;;2.30;1.10;;;;;;;2.68;91.30;97670.15;219498;1265;139745;-74
2023/11/24 05:39:40;;;;;;;6.30;1.60;;;;;;;2.64;90.92;97666.15;218006;1264;140244;-72
2023/11/24 05:44:44;;;;;;;5.90;1.60;;;;;;;2.59;90.70;97673.37;217053;1264;141120;-74
2023/11/24 05:49:51;;;;;;;3.80;0.90;;;;;;;2.54;90.49;97679.33;217984;1265;140690;-72
2023/11/24 05:54:58;;;;;;;2.70;2.00;;;;;;;2.48;90.38;97681.66;217001;1265;139214;-76
2023/11/24 06:00:08;;;;;;;8.00;1.60;;;;;;;2.39;90.19;97678.47;218010;1265;141019;-78
2023/11/24 06:05:15;;;;;;;8.50;3.60;;;;;;;2.31;90.26;97668.42;218240;1265;139333;-76
2023/11/24 06:10:21;;;;;;;3.40;1.30;;;;;;;2.24;90.07;97670.77;217962;1265;139887;-76
2023/11/24 06:15:28;;;;;;;6.10;1.70;;;;;;;2.22;90.23;97674.36;216880;1265;139715;-71
2023/11/24 06:20:34;;;;;;;4.80;0.90;;;;;;;2.21;90.21;97680.13;216811;1268;139682;-74
2023/11/24 06:25:38;;;;;;;4.20;1.80;;;;;;;2.17;90.00;97692.45;217134;1264;140246;-74
2023/11/24 06:30:43;;;;;;;7.80;1.80;;;;;;;2.18;90.27;97692.45;217129;1266;139797;-72
2023/11/24 06:35:48;;;;;;;4.10;0.70;;;;;;;2.20;90.34;97699.92;216821;1268;139293;-74
2023/11/24 06:40:52;;;;;;;5.50;1.10;;;;;;;2.22;90.21;97693.17;217549;1265;139469;-72
2023/11/24 06:45:57;;;;;;;3.60;1.10;;;;;;;2.21;90.07;97688.26;216579;1265;139827;-71
2023/11/24 06:51:02;;;;;;;11.80;1.70;;;;;;;2.25;89.88;97687.14;218147;1265;140950;-71
2023/11/24 06:56:07;;;;;;;11.20;1.70;;;;;;;2.31;89.80;97694.70;216846;1264;140160;-73
2023/11/24 07:01:11;;;;;;;5.70;1.90;;;;;;;2.40;89.75;97688.09;217467;1264;139767;-72
2023/11/24 07:06:16;;;;;;;6.80;2.40;;;;;;;2.44;89.77;97689.48;217125;1264;139387;-75
2023/11/24 07:11:22;;;;;;;9.20;3.30;;;;;;;2.47;89.52;97684.16;218317;1265;140199;-74
2023/11/24 07:16:26;;;;;;;12.30;2.00;;;;;;;2.47;89.43;97677.39;218191;1264;139703;-75
2023/11/24 07:21:31;;;;;;;6.90;1.50;;;;;;;2.54;89.48;97674.52;219144;1264;139672;-75
2023/11/24 07:26:37;;;;;;;2.90;1.20;;;;;;;2.70;89.52;97668.36;219594;1265;140765;-74
2023/11/24 07:31:41;;;;;;;7.70;1.70;;;;;;;2.90;89.49;97662.54;217489;1266;140778;-71
2023/11/24 07:36:46;;;;;;;8.60;2.30;;;;;;;3.03;89.22;97659.56;219550;1265;139730;-77
2023/11/24 07:41:50;;;;;;;7.00;1.80;;;;;;;3.11;88.85;97654.30;218363;1265;504861;-72
2023/11/24 07:46:55;;;;;;;6.00;2.20;;;;;;;3.17;88.63;97652.79;217164;1265;140198;-71
2023/11/24 07:52:01;;;;;;;2.70;1.40;;;;;;;3.21;88.61;97658.27;217880;1265;140133;-72
2023/11/24 07:57:07;;;;;;;6.10;2.00;;;;;;;3.26;88.55;97659.80;217057;1265;140087;-74
2023/11/24 08:02:11;;;;;;;11.50;2.70;;;;;;;3.32;88.41;97651.95;217946;1264;140155;-70
2023/11/24 08:07:19;;;;;;;6.40;2.00;;;;;;;3.36;88.17;97641.98;216861;1265;139334;-67
2023/11/24 08:12:25;;;;;;;11.30;2.90;;;;;;;3.45;88.04;97645.92;217007;1268;139224;-67
2023/11/24 08:17:30;;;;;;;9.40;1.70;;;;;;;3.54;87.89;97643.64;216751;1265;140216;-67
2023/11/24 08:22:35;;;;;;;5.50;1.30;;;;;;;3.62;87.71;97643.41;217380;1265;140071;-67
2023/11/24 08:27:40;;;;;;;4.00;1.60;;;;;;;3.62;87.49;97643.20;217653;1268;140213;-68
2023/11/24 08:32:48;;;;;;;4.80;1.50;;;;;;;3.61;87.20;97645.23;216645;1265;140669;-68
2023/11/24 08:37:53;;;;;;;11.00;5.00;;;;;;;3.58;87.04;97651.92;217090;1264;139825;-68
2023/11/24 08:42:57;;;;;;;14.80;4.10;;;;;;;3.56;86.78;97653.90;216678;1265;139537;-68
2023/11/24 08:48:04;;;;;;;15.00;7.90;;;;;;;3.55;86.72;97654.36;216919;1265;140136;-67
2023/11/24 08:53:08;;;;;;;19.40;7.80;;;;;;;3.52;86.80;97647.09;216754;1264;139549;-67
2023/11/24 08:58:12;;;;;;;5.80;2.60;;;;;;;3.52;86.67;97647.57;217862;1264;139627;-69
2023/11/24 09:03:18;;;;;;;3.60;2.20;;;;;;;3.63;86.84;97641.36;216704;1268;139177;-70
2023/11/24 09:08:23;;;;;;;1.30;1.20;;;;;;;3.68;86.42;97638.98;217621;1265;139106;-73
2023/11/24 09:13:28;;;;;;;32.10;4.20;;;;;;;3.74;86.20;97638.17;217076;1264;139258;-70
2023/11/24 09:18:32;;;;;;;3.50;1.30;;;;;;;3.81;85.98;97639.28;218737;1265;139232;-69
2023/11/24 09:23:37;;;;;;;6.50;1.70;;;;;;;3.89;85.67;97657.34;219130;1265;140766;-71
2023/11/24 09:28:42;;;;;;;5.40;2.80;;;;;;;3.94;85.31;97676.49;218011;1265;139268;-69
2023/11/24 09:33:46;;;;;;;4.80;1.70;;;;;;;3.82;84.73;97671.67;219097;1265;140951;-70
2023/11/24 09:38:51;;;;;;;5.30;2.80;;;;;;;3.64;84.55;97671.46;217772;1266;161252;-71
2023/11/24 09:43:59;;;;;;;10.90;2.20;;;;;;;3.53;84.62;97663.96;217447;1266;140054;-71
2023/11/24 09:49:07;;;;;;;1.90;1.70;;;;;;;3.51;84.80;97653.60;216746;1264;139314;-69
2023/11/24 09:54:12;;;;;;;;;;;;;;;3.58;85.07;97642.86;217379;1265;140093;-69
2023/11/24 09:59:16;;;;;;;6.80;1.90;;;;;;;3.77;85.22;97631.17;217168;1265;125990;-69
2023/11/24 10:04:19;;;;;;;2.30;1.80;;;;;;;4.03;85.07;97620.98;216981;1268;138804;-71
2023/11/24 10:09:28;;;;;;;4.30;1.60;;;;;;;4.36;84.95;97619.28;217404;1265;140062;-71
2023/11/24 10:14:32;;;;;;;4.80;2.10;;;;;;;4.73;84.16;97610.39;217763;1265;139072;-72
2023/11/24 10:19:38;;;;;;;5.30;3.00;;;;;;;5.02;83.81;97601.73;217434;1264;141104;-75
2023/11/24 10:24:45;;;;;;;4.00;1.80;;;;;;;5.25;83.07;97588.89;217131;1265;140117;-72
2023/11/24 10:29:51;;;;;;;6.00;2.90;;;;;;;5.31;82.73;97589.83;216937;1265;139517;-72
2023/11/24 10:34:57;;;;;;;8.60;2.60;;;;;;;5.17;81.83;97588.83;217073;1265;141211;-74
2023/11/24 10:40:05;;;;;;;3.60;1.60;;;;;;;4.92;81.06;97579.20;217227;1265;140050;-72
2023/11/24 10:45:11;;;;;;;8.10;2.10;;;;;;;4.83;81.08;97577.86;217872;1265;140258;-74
2023/11/24 10:50:16;;;;;;;3.20;1.40;;;;;;;5.01;81.12;97576.06;217381;1266;139224;-70
2023/11/24 10:55:21;;;;;;;5.40;1.50;;;;;;;5.23;80.95;97569.43;216474;1265;140166;-71
2023/11/24 11:00:27;;;;;;;1.70;1.20;;;;;;;5.48;80.65;97569.66;217292;1265;139857;-74
2023/11/24 11:05:50;;;;;;;6.30;1.70;;;;;;;5.51;80.00;97581.58;216507;1266;139255;-73
2023/11/24 11:11:15;;;;;;;4.00;2.40;;;;;;;5.43;79.60;97583.06;218211;1264;139603;-74
2023/11/24 11:16:20;;;;;;;5.10;1.80;;;;;;;5.23;78.84;97585.91;219437;1265;139600;-74
2023/11/24 11:21:31;;;;;;;1.70;1.20;;;;;;;5.12;78.66;97584.67;218012;1268;160829;-74
2023/11/24 11:26:48;;;;;;;2.60;1.50;;;;;;;5.07;78.31;97589.33;218574;1265;139454;-73
2023/11/24 11:31:55;;;;;;;3.00;1.10;;;;;;;4.99;78.38;97588.04;219335;1265;140822;-72
2023/11/24 11:37:06;;;;;;;;;;;;;;;4.85;77.69;97580.79;219273;1265;140377;-73
2023/11/24 11:42:11;;;;;;;8.60;3.40;;;;;;;4.70;77.76;97573.67;218406;1268;125818;-73
2023/11/24 11:52:26;;;;;;;2.60;1.30;;;;;;;5.02;77.83;97583.63;217784;1266;139337;-73
2023/11/24 11:57:32;;;;;;;8.70;3.90;;;;;;;5.13;77.55;97583.25;216568;1266;139794;-72
2023/11/24 12:02:38;;;;;;;4.20;1.60;;;;;;;5.18;77.15;97574.73;218234;1265;140011;-74
2023/11/24 12:07:48;;;;;;;2.50;1.30;;;;;;;5.25;76.85;97570.02;216425;1265;139757;-72
2023/11/24 12:12:52;;;;;;;3.70;2.60;;;;;;;5.23;76.64;97574.34;217001;1265;140313;-72
2023/11/24 12:17:57;;;;;;;3.30;1.20;;;;;;;5.18;76.11;97567.39;216879;1265;139428;-72
2023/11/24 12:23:04;;;;;;;3.90;2.00;;;;;;;5.11;76.42;97568.86;217499;1266;140900;-72
2023/11/24 12:28:10;;;;;;;7.00;2.80;;;;;;;4.96;75.97;97576.86;216570;1265;139455;-71
2023/11/24 12:33:18;;;;;;;4.40;2.00;;;;;;;4.70;76.27;97577.80;217580;1268;140691;-72
2023/11/24 12:38:23;;;;;;;2.90;1.80;;;;;;;4.51;75.95;97572.13;217224;1265;140061;-72
2023/11/24 12:43:32;;;;;;;5.60;1.80;;;;;;;4.35;76.02;97567.46;216819;1266;141055;-71
2023/11/24 12:48:39;;;;;;;2.20;2.00;;;;;;;4.33;76.01;97564.53;217697;1265;140294;-72
2023/11/24 12:53:46;;;;;;;5.80;1.70;;;;;;;4.32;76.18;97559.20;217838;1266;140071;-72
2023/11/24 12:58:54;;;;;;;6.30;2.80;;;;;;;4.29;75.91;97560.13;218076;1265;139925;-69
2023/11/24 13:03:59;;;;;;;1.90;1.30;;;;;;;4.28;76.11;97564.01;218237;1265;139982;-72
2023/11/24 13:09:09;;;;;;;7.00;2.70;;;;;;;4.27;75.71;97561.47;219353;1265;140859;-73
2023/11/24 13:14:19;;;;;;;2.60;1.90;;;;;;;4.24;75.72;97560.39;216787;1268;139663;-73
2023/11/24 13:19:24;;;;;;;2.90;1.50;;;;;;;4.23;75.53;97563.59;219429;1265;139655;-74
2023/11/24 13:24:31;;;;;;;4.20;1.80;;;;;;;4.11;75.23;97564.56;218965;1265;141449;-73
2023/11/24 13:29:35;;;;;;;8.00;2.10;;;;;;;4.02;75.22;97563.54;218648;1265;142004;-73
2023/11/24 13:34:40;;;;;;;5.20;2.80;;;;;;;4.03;75.51;97565.30;216749;1268;140784;-72
2023/11/24 13:39:48;;;;;;;4.30;2.40;;;;;;;4.08;75.68;97572.69;217913;1265;140017;-72
2023/11/24 13:44:53;;;;;;;3.50;1.40;;;;;;;4.02;75.53;97564.66;216577;1266;139641;-72
2023/11/24 13:49:58;;;;;;;3.50;2.50;;;;;;;3.82;75.17;97562.77;217992;1265;140243;-72
2023/11/24 13:55:05;;;;;;;6.40;3.80;;;;;;;3.62;74.91;97567.64;217787;1265;139895;-72
2023/11/24 14:00:10;;;;;;;;;;;;;;;3.47;74.91;97567.88;217079;1268;139285;-71
2023/11/24 14:05:15;;;;;;;2.70;1.60;;;;;;;3.31;74.87;97573.60;218483;1265;125596;-72
2023/11/24 14:10:26;;;;;;;2.70;1.30;;;;;;;3.18;74.88;97573.19;216748;1265;139362;-73
2023/11/24 14:15:32;;;;;;;2.70;1.70;;;;;;;3.07;74.94;97571.17;217538;1265;139756;-72
2023/11/24 14:20:40;;;;;;;7.80;1.90;;;;;;;2.99;75.00;97572.91;216421;1266;139359;-71
2023/11/24 14:25:45;;;;;;;5.80;2.40;;;;;;;2.92;75.29;97570.20;216685;1267;139343;-73
2023/11/24 14:30:51;;;;;;;9.70;2.00;;;;;;;2.82;75.39;97564.35;217043;1268;140630;-71
2023/11/24 14:35:56;;;;;;;4.40;1.30;;;;;;;2.67;75.53;97560.73;216804;1268;140423;-72
2023/11/24 14:41:07;;;;;;;2.40;1.60;;;;;;;2.51;75.54;97554.97;217239;1265;139284;-72
2023/11/24 14:46:19;;;;;;;6.00;2.50;;;;;;;2.35;75.73;97552.65;216963;1268;140066;-72
2023/11/24 14:51:35;;;;;;;4.70;2.60;;;;;;;2.24;76.03;97552.54;217350;1266;139722;-72
2023/11/24 14:56:43;;;;;;;4.20;1.80;;;;;;;2.12;76.29;97553.52;217099;1268;140551;-71
2023/11/24 15:01:58;;;;;;;5.70;2.00;;;;;;;1.99;76.25;97552.48;217343;1265;141314;-71
2023/11/24 15:07:04;;;;;;;3.70;3.00;;;;;;;1.88;76.64;97553.06;219248;1268;141589;-73
2023/11/24 15:12:09;;;;;;;4.10;2.60;;;;;;;1.81;76.80;97562.36;219468;1266;140701;-73
2023/11/24 15:17:16;;;;;;;9.70;3.20;;;;;;;1.77;77.23;97571.06;217155;1266;139438;-73
2023/11/24 15:22:26;;;;;;;4.90;3.50;;;;;;;1.78;77.49;97566.52;217577;1264;139278;-71
2023/11/24 15:27:32;;;;;;;8.50;2.60;;;;;;;1.77;77.32;97557.45;219478;1266;140586;-72
2023/11/24 15:32:36;;;;;;;7.50;2.70;;;;;;;1.69;77.59;97560.48;219110;1268;140936;-72
2023/11/24 15:37:40;;;;;;;7.30;3.50;;;;;;;1.68;77.83;97565.61;217069;1268;141105;-70
2023/11/24 15:42:47;;;;;;;6.40;3.20;;;;;;;1.64;77.74;97564.70;218044;1268;139567;-71
2023/11/24 15:47:57;;;;;;;7.30;3.90;;;;;;;1.61;77.74;97556.00;217025;1268;141893;-71
2023/11/24 15:53:13;;;;;;;4.20;3.20;;;;;;;1.53;78.03;97552.63;216666;1268;139355;-72
2023/11/24 15:58:24;;;;;;;6.70;3.00;;;;;;;1.46;78.32;97552.45;217097;1268;139702;-70
2023/11/24 16:03:30;;;;;;;5.80;3.10;;;;;;;1.42;78.75;97545.78;217131;1269;139440;-70
2023/11/24 16:08:44;;;;;;;6.80;4.30;;;;;;;1.41;79.01;97538.57;217315;1267;140635;-70
2023/11/24 16:13:49;;;;;;;7.00;3.10;;;;;;;1.41;79.25;97537.15;217032;1268;139558;-70
2023/11/24 16:18:55;;;;;;;7.70;3.30;;;;;;;1.35;79.59;97537.77;217414;1267;139291;-70
2023/11/24 16:24:01;;;;;;;7.60;3.10;;;;;;;1.37;79.87;97542.63;216641;1269;139834;-68
2023/11/24 16:29:06;;;;;;;6.00;3.10;;;;;;;1.39;79.82;97547.24;217436;1267;140389;-71
2023/11/24 16:34:10;;;;;;;7.20;3.30;;;;;;;1.42;80.14;97543.73;217331;1265;139529;-70
2023/11/24 16:39:22;;;;;;;10.10;3.70;;;;;;;1.42;80.27;97543.10;217073;1267;139508;-70
2023/11/24 16:44:27;;;;;;;10.80;2.90;;;;;;;1.44;80.43;97542.36;217975;1267;140689;-70
2023/11/24 16:49:32;;;;;;;6.60;3.20;;;;;;;1.43;80.53;97536.67;217997;1268;139877;-72
2023/11/24 16:54:39;;;;;;;8.60;3.60;;;;;;;1.43;81.10;97538.36;217658;1267;140079;-71
2023/11/24 16:59:44;;;;;;;11.80;5.40;;;;;;;1.46;81.05;97541.52;216771;1267;139914;-70
2023/11/24 17:04:50;;;;;;;9.20;3.50;;;;;;;1.50;81.28;97540.51;217710;1269;139899;-71
2023/11/24 17:09:54;;;;;;;15.30;5.40;;;;;;;1.50;81.16;97532.78;219413;1265;140157;-72
2023/11/24 17:14:59;;;;;;;12.70;5.30;;;;;;;1.51;81.29;97534.34;219412;1265;141336;-73
2023/11/24 17:20:07;;;;;;;15.80;5.10;;;;;;;1.51;81.27;97530.02;216579;1268;139675;-68
2023/11/24 17:25:15;;;;;;;10.60;4.90;;;;;;;1.51;81.31;97522.67;219065;1267;139860;-71
2023/11/24 17:30:35;;;;;;;9.80;4.60;;;;;;;1.52;81.62;97523.59;216425;1267;139825;-71
2023/11/24 17:35:43;;;;;;;12.00;4.50;;;;;;;1.52;81.52;97516.40;218475;1265;140348;-72
2023/11/24 17:40:49;;;;;;;11.00;4.80;;;;;;;1.47;81.76;97506.84;217887;1267;235838;-71
2023/11/24 17:45:55;;;;;;;9.20;3.80;;;;;;;1.37;81.53;97506.56;216301;1269;139972;-70
2023/11/24 17:51:02;;;;;;;14.20;5.50;;;;;;;1.30;81.89;97505.56;217956;1267;140184;-71
2023/11/24 17:56:07;;;;;;;14.00;6.60;;;;;;;1.23;81.97;97502.11;216856;1268;139424;-73
2023/11/24 18:01:12;;;;;;;15.90;6.30;;;;;;;1.21;82.34;97509.95;217666;1265;140836;-71
2023/11/24 18:06:17;;;;;;;12.50;5.20;;;;;;;1.22;82.88;97513.78;217140;1265;139645;-71
2023/11/24 18:11:22;;;;;;;13.20;4.90;;;;;;;1.24;82.95;97502.63;216591;1266;139528;-71
2023/11/24 18:16:28;;;;;;;9.10;5.20;;;;;;;1.24;83.41;97490.31;216475;1269;139341;-70
2023/11/24 18:21:33;;;;;;;13.80;5.70;;;;;;;1.23;82.98;97485.89;217242;1265;140202;-71
2023/11/24 18:26:41;;;;;;;15.90;5.40;;;;;;;1.21;82.99;97485.74;216731;1268;139683;-71
2023/11/24 18:31:47;;;;;;;10.50;4.70;;;;;;;1.21;83.47;97492.63;216691;1265;230352;-69
2023/11/24 18:36:53;;;;;;;11.60;4.70;;;;;;;1.21;83.37;97497.27;217302;1265;140238;-69
2023/11/24 18:41:58;;;;;;;7.80;4.60;;;;;;;1.22;83.45;97502.77;218076;1266;141087;-70
2023/11/24 18:47:03;;;;;;;9.30;5.50;;;;;;;1.22;83.66;97504.34;217302;1265;140079;-68
2023/11/24 18:52:11;;;;;;;15.30;5.00;;;;;;;1.20;83.62;97509.14;217856;1265;140486;-71
2023/11/24 18:57:18;;;;;;;12.10;3.60;;;;;;;1.20;83.36;97498.02;217025;1268;140545;-73
2023/11/24 19:02:26;;;;;;;10.80;4.60;;;;;;;1.17;83.59;97497.38;216800;1268;139632;-68
2023/11/24 19:07:33;;;;;;;6.90;4.40;;;;;;;1.14;83.67;97499.71;218830;1265;139893;-69
2023/11/24 19:12:39;;;;;;;10.40;5.20;;;;;;;1.12;83.81;97494.79;218148;1265;140286;-69
2023/11/24 19:17:44;;;;;;;8.30;4.50;;;;;;;1.10;83.79;97493.65;218970;1265;140050;-71
2023/11/24 19:22:48;;;;;;;11.00;4.40;;;;;;;1.13;83.86;97486.58;219511;1265;140491;-72
2023/11/24 19:27:55;;;;;;;7.10;3.20;;;;;;;1.17;83.99;97483.47;218259;1265;140286;-72
2023/11/24 19:33:00;;;;;;;10.40;3.90;;;;;;;1.20;84.06;97480.69;216314;1265;139329;-71
2023/11/24 19:38:06;;;;;;;11.30;4.50;;;;;;;1.20;84.36;97478.02;217542;1264;140165;-71
2023/11/24 19:43:11;;;;;;;6.20;4.90;;;;;;;1.19;84.38;97478.80;215849;1266;1267998;-71
2023/11/24 19:48:17;;;;;;;11.10;3.80;;;;;;;1.23;84.74;97478.59;217077;1265;139714;-71
2023/11/24 19:53:22;;;;;;;9.50;3.80;;;;;;;1.24;84.94;97481.96;217775;1265;139681;-71
2023/11/24 19:58:28;;;;;;;6.50;4.30;;;;;;;1.25;85.18;97472.97;217227;1265;141302;-71
2023/11/24 20:03:33;;;;;;;13.30;4.30;;;;;;;1.30;84.97;97472.61;217231;1265;139631;-71
2023/11/24 20:08:37;;;;;;;9.50;3.80;;;;;;;1.30;85.12;97475.55;216995;1265;139843;-71
2023/11/24 20:13:43;;;;;;;6.70;3.90;;;;;;;1.29;85.54;97481.98;217274;1265;139647;-71
2023/11/24 20:18:48;;;;;;;9.10;4.80;;;;;;;1.30;85.75;97481.58;216920;1265;139822;-70
2023/11/24 20:23:53;;;;;;;8.80;4.60;;;;;;;1.29;85.60;97493.45;216955;1265;139615;-71
2023/11/24 20:28:58;;;;;;;9.20;4.50;;;;;;;1.25;85.63;97493.48;217963;1265;150430;-71
2023/11/24 20:34:04;;;;;;;10.70;4.80;;;;;;;1.24;85.97;97495.36;216340;1266;139850;-70
2023/11/24 20:39:11;;;;;;;;;;;;;;;1.23;86.02;97493.77;217340;1265;140104;-70
2023/11/24 20:44:18;;;;;;;10.80;4.60;;;;;;;1.20;86.33;97483.67;216998;1268;125916;-70
2023/11/24 20:49:24;;;;;;;14.10;6.80;;;;;;;1.21;86.20;97476.88;217943;1265;140235;-70
2023/11/24 20:54:34;;;;;;;9.00;4.90;;;;;;;1.21;86.51;97473.43;218831;1265;141312;-72
2023/11/24 20:59:39;;;;;;;;;;;;;;;1.22;86.23;97480.46;219434;1264;139559;-70
2023/11/24 21:04:45;;;;;;;6.60;3.60;;;;;;;1.20;86.56;97485.69;219702;1264;127239;-73
2023/11/24 21:09:52;;;;;;;7.10;3.60;;;;;;;1.21;86.49;97484.39;217463;1265;141649;-70
2023/11/24 21:14:59;;;;;;;8.40;4.40;;;;;;;1.21;86.67;97487.29;217649;1265;140280;-69
2023/11/24 21:20:04;;;;;;;9.40;4.80;;;;;;;1.23;86.99;97485.73;218136;1265;142968;-69
2023/11/24 21:25:09;;;;;;;6.70;3.50;;;;;;;1.26;87.23;97489.99;217826;1265;140043;-70
2023/11/24 21:30:16;;;;;;;9.30;5.10;;;;;;;1.30;87.05;97486.83;216515;1266;140271;-68
2023/11/24 21:35:22;;;;;;;9.00;7.60;;;;;;;1.34;87.55;97488.17;217246;1265;139531;-71
2023/11/24 21:40:32;;;;;;;61.30;29.30;;;;;;;1.34;87.21;97483.35;216609;1265;139596;-69
2023/11/24 21:45:41;;;;;;;12.20;5.50;;;;;;;1.36;87.24;97482.04;216572;1266;139644;-69
2023/11/24 21:50:49;;;;;;;10.10;5.40;;;;;;;1.38;87.52;97480.54;217356;1265;140146;-70
2023/11/24 21:55:54;;;;;;;7.90;5.50;;;;;;;1.37;87.53;97481.52;218366;1265;140096;-69
2023/11/24 22:00:58;;;;;;;18.00;5.30;;;;;;;1.37;87.46;97486.45;217060;1265;139360;-70
2023/11/24 22:06:03;;;;;;;4.70;3.20;;;;;;;1.37;87.36;97483.83;216704;1265;139514;-68
2023/11/24 22:11:12;;;;;;;8.60;3.50;;;;;;;1.40;87.78;97489.20;217040;1268;140757;-67
2023/11/24 22:16:17;;;;;;;11.50;5.20;;;;;;;1.43;87.61;97484.65;217612;1265;139585;-67
2023/11/24 22:21:23;;;;;;;7.40;5.10;;;;;;;1.45;87.65;97487.41;216652;1268;139516;-70
2023/11/24 22:26:28;;;;;;;10.50;5.40;;;;;;;1.44;87.31;97488.39;217252;1268;140288;-70
2023/11/24 22:31:35;;;;;;;14.80;5.60;;;;;;;1.45;87.70;97492.34;217862;1265;139830;-70
2023/11/24 22:36:44;;;;;;;15.00;5.30;;;;;;;1.46;87.70;97492.52;217431;1265;141195;-71
2023/11/24 22:41:50;;;;;;;14.00;5.80;;;;;;;1.48;87.54;97489.16;216869;1265;139891;-72
2023/11/24 22:46:58;;;;;;;8.00;6.00;;;;;;;1.50;87.77;97485.54;217416;1265;139913;-69
2023/11/24 22:52:03;;;;;;;10.20;5.90;;;;;;;1.53;87.63;97482.69;217083;1265;140409;-69
2023/11/24 22:57:09;;;;;;;16.30;6.40;;;;;;;1.55;87.87;97477.58;217359;1268;139622;-70
2023/11/24 23:02:15;;;;;;;15.30;5.60;;;;;;;1.57;87.82;97477.83;217490;1266;140805;-69
2023/11/24 23:07:24;;;;;;;15.10;6.50;;;;;;;1.59;87.77;97477.09;216735;1265;139688;-69
2023/11/24 23:12:29;;;;;;;9.10;6.60;;;;;;;1.60;87.83;97474.20;217607;1265;139853;-75
2023/11/24 23:17:33;;;;;;;9.30;6.10;;;;;;;1.62;88.00;97473.01;217201;1265;140662;-71
2023/11/24 23:22:42;;;;;;;7.20;5.60;;;;;;;1.62;87.93;97474.95;217004;1265;140012;-71
2023/11/24 23:27:46;;;;;;;14.90;6.70;;;;;;;1.58;87.72;97478.64;217370;1268;142000;-73
2023/11/24 23:32:51;;;;;;;8.00;5.70;;;;;;;1.54;87.76;97467.68;217979;1265;152736;-71
2023/11/24 23:37:59;;;;;;;7.60;4.60;;;;;;;1.47;87.92;97459.69;217602;1265;141994;-70
2023/11/24 23:43:04;;;;;;;8.10;4.70;;;;;;;1.43;87.73;97465.02;217176;1265;140259;-68
2023/11/24 23:48:08;;;;;;;6.80;4.70;;;;;;;1.44;88.08;97460.96;217280;1265;141160;-71